Time;durP1;ratioP1;P1;durP2;ratioP2;P2;SDS_P1;SDS_P2;PMS_P1;PMS_P2;Temp;Humidity;BMP_temperature;BMP_pressure;BME280_temperature;BME280_humidity;BME280_pressure;Samples;Min_cycle;Max_cycle;Signal;HPM_P1;HPM_P2
2023/07/13 00:01:52;;;;;;;3.75;2.72;;;;;;;18.83;57.66;100882.09;15469955;28;20050;-44
2023/07/13 00:09:27;;;;;;;5.18;2.83;;;;;;;19.02;57.94;100869.69;15485870;28;20046;-44
2023/07/13 00:17:00;;;;;;;5.25;3.00;;;;;;;19.20;56.80;100886.66;15485894;28;20109;-47
2023/07/13 00:24:41;;;;;;;5.82;2.88;;;;;;;19.17;57.10;100893.47;15470438;28;20582;-48
2023/07/13 00:32:14;;;;;;;7.00;3.15;;;;;;;19.14;57.22;100890.47;15525640;28;20042;-49
2023/07/13 00:39:50;;;;;;;9.93;2.97;;;;;;;18.98;57.39;100887.66;15532440;28;20057;-47
2023/07/13 00:47:23;;;;;;;4.80;2.92;;;;;;;18.76;58.06;100892.38;15505729;28;20053;-47
2023/07/13 00:54:58;;;;;;;;;;;;;;;18.58;58.96;100901.72;15519906;28;20049;-46
2023/07/13 01:02:30;;;;;;;5.07;2.92;;;;;;;18.63;58.59;100896.34;15548891;28;19983;-46
2023/07/13 01:10:06;;;;;;;5.55;3.35;;;;;;;18.44;59.28;100898.63;15481075;28;20165;-53
2023/07/13 01:17:39;;;;;;;6.47;3.28;;;;;;;18.31;59.40;100889.00;15480976;28;20040;-48
2023/07/13 01:25:14;;;;;;;6.03;3.38;;;;;;;18.12;59.70;100878.75;15544168;28;20069;-47
2023/07/13 01:32:50;;;;;;;5.60;3.45;;;;;;;17.98;60.71;100873.72;15490867;28;20517;-47
2023/07/13 01:40:24;;;;;;;4.75;3.53;;;;;;;17.78;61.84;100862.66;15462440;28;20064;-45
2023/07/13 01:47:57;;;;;;;6.03;3.50;;;;;;;17.79;61.46;100873.25;15477577;28;20445;-46
2023/07/13 01:55:33;;;;;;;7.22;3.95;;;;;;;17.70;60.73;100887.50;15494036;28;20104;-45
2023/07/13 02:03:05;;;;;;;6.30;4.30;;;;;;;17.53;60.60;100874.84;15553816;28;20122;-43
2023/07/13 02:10:40;;;;;;;6.38;4.07;;;;;;;17.44;61.07;100868.22;15554445;28;20418;-46
2023/07/13 02:18:16;;;;;;;6.97;3.80;;;;;;;17.20;62.03;100864.91;15553453;28;20042;-47
2023/07/13 02:25:55;;;;;;;11.07;4.40;;;;;;;17.11;62.51;100843.91;15491568;28;20134;-50
2023/07/13 02:33:28;;;;;;;6.40;3.90;;;;;;;16.26;64.97;100846.66;15421900;28;20154;-47
2023/07/13 02:41:03;;;;;;;9.88;4.47;;;;;;;16.80;63.79;100862.47;15413745;28;20432;-48
2023/07/13 02:48:37;;;;;;;10.30;4.55;;;;;;;16.98;62.57;100877.63;15418299;28;20047;-45
2023/07/13 02:56:11;;;;;;;9.07;5.13;;;;;;;16.75;63.54;100874.06;15353907;29;20492;-48
2023/07/13 03:03:45;;;;;;;8.25;5.00;;;;;;;16.80;63.64;100895.00;15352098;28;20374;-48
2023/07/13 03:11:21;;;;;;;10.25;5.03;;;;;;;16.58;63.51;100875.91;15368191;29;20055;-46
2023/07/13 03:19:00;;;;;;;11.02;5.20;;;;;;;16.68;63.99;100888.78;15352350;29;20035;-45
2023/07/13 03:26:36;;;;;;;7.63;5.40;;;;;;;16.77;63.23;100890.88;15352370;28;20256;-44
2023/07/13 03:34:11;;;;;;;7.47;5.57;;;;;;;15.85;67.20;100904.66;15487406;28;20046;-45
2023/07/13 03:41:49;;;;;;;10.98;5.60;;;;;;;16.31;65.95;100908.22;15471746;28;20137;-49
2023/07/13 03:49:23;;;;;;;8.23;5.30;;;;;;;16.94;64.47;100911.75;15455808;28;20069;-43
2023/07/13 03:56:58;;;;;;;8.90;5.13;;;;;;;16.61;65.39;100918.78;15486139;28;20097;-45
2023/07/13 04:04:31;;;;;;;9.30;5.80;;;;;;;17.05;63.61;100922.47;15486440;28;20480;-50
2023/07/13 04:12:07;;;;;;;7.03;4.95;;;;;;;17.34;63.53;100933.19;15485934;28;20474;-47
2023/07/13 04:19:41;;;;;;;8.48;5.25;;;;;;;17.62;63.03;100931.38;15469670;28;20046;-47
2023/07/13 04:27:15;;;;;;;9.05;5.57;;;;;;;17.71;63.26;100929.88;15483953;28;20073;-51
2023/07/13 04:34:53;;;;;;;7.93;5.15;;;;;;;17.28;65.83;100945.88;15426779;28;20061;-49
2023/07/13 04:42:27;;;;;;;7.65;4.90;;;;;;;17.21;67.04;100945.25;15409324;28;20476;-44
2023/07/13 04:50:00;;;;;;;5.65;4.60;;;;;;;18.40;63.42;100940.97;15426182;28;20047;-48
2023/07/13 04:57:34;;;;;;;;;;;;;;;18.18;64.54;100945.63;15426250;28;20125;-47
2023/07/13 05:05:08;;;;;;;8.60;4.13;;;;;;;18.35;64.70;100963.50;15437140;23;19926;-48
2023/07/13 05:12:44;;;;;;;6.85;4.30;;;;;;;18.49;62.81;100963.91;15431155;28;20046;-46
2023/07/13 05:20:20;;;;;;;6.80;4.18;;;;;;;18.81;61.85;100969.38;15431417;28;20130;-46
2023/07/13 05:27:54;;;;;;;;;;;;;;;19.43;59.32;100976.06;15530702;28;20505;-47
2023/07/13 05:35:30;;;;;;;6.53;3.53;;;;;;;20.30;58.15;100965.56;15626097;28;19924;-48
2023/07/13 05:43:04;;;;;;;8.38;2.92;;;;;;;19.70;57.72;100980.63;15606984;28;20033;-47
2023/07/13 05:50:38;;;;;;;5.80;2.90;;;;;;;19.95;57.12;100972.53;15606204;28;20099;-47
2023/07/13 05:58:13;;;;;;;6.93;2.78;;;;;;;20.63;55.95;100978.72;15621855;28;20044;-49
2023/07/13 06:05:46;;;;;;;5.63;2.45;;;;;;;20.48;55.44;100980.63;15605870;28;20057;-47
2023/07/13 06:13:20;;;;;;;4.63;2.33;;;;;;;21.24;55.01;100971.63;15622612;28;20346;-48
2023/07/13 06:20:54;;;;;;;4.03;1.92;;;;;;;21.00;54.05;100960.47;15621997;28;20045;-49
2023/07/13 06:28:29;;;;;;;4.50;2.00;;;;;;;21.52;53.20;100967.47;15574224;28;20269;-46
2023/07/13 06:36:06;;;;;;;5.78;2.17;;;;;;;21.66;51.13;100974.00;15542111;28;20049;-46
2023/07/13 06:43:40;;;;;;;5.57;2.10;;;;;;;22.34;50.53;100971.50;15542421;28;20070;-50
2023/07/13 06:51:14;;;;;;;6.35;1.67;;;;;;;22.26;50.62;100969.38;15559209;28;20049;-50
2023/07/13 06:58:48;;;;;;;3.88;1.70;;;;;;;22.66;50.53;100978.38;15558031;28;20450;-47
2023/07/13 07:06:23;;;;;;;3.53;1.63;;;;;;;22.64;48.67;100977.88;15559032;28;20057;-46
2023/07/13 07:13:58;;;;;;;3.40;1.55;;;;;;;22.83;47.83;100981.53;15558798;28;20398;-47
2023/07/13 07:21:31;;;;;;;6.78;1.70;;;;;;;22.38;49.06;100986.25;15558190;28;20510;-49
2023/07/13 07:29:05;;;;;;;3.92;1.67;;;;;;;23.66;46.45;100991.47;15584338;28;20052;-47
2023/07/13 07:36:38;;;;;;;3.33;1.30;;;;;;;24.07;44.74;100996.44;15618130;28;20049;-52
2023/07/13 07:44:12;;;;;;;3.50;1.30;;;;;;;24.02;46.04;100996.53;15599169;28;20044;-47
2023/07/13 07:51:45;;;;;;;5.07;1.80;;;;;;;23.12;45.62;101010.88;15607472;28;20042;-53
2023/07/13 07:59:20;;;;;;;3.97;1.58;;;;;;;23.56;45.98;101005.25;15599355;28;20050;-49
2023/07/13 08:06:52;;;;;;;4.13;1.83;;;;;;;23.24;48.39;101011.34;15617474;28;20056;-48
2023/07/13 08:14:27;;;;;;;3.67;1.45;;;;;;;23.20;46.08;101010.28;15599044;28;20042;-48
2023/07/13 08:22:00;;;;;;;3.00;1.45;;;;;;;23.70;45.76;101021.03;15616395;28;20041;-46
2023/07/13 08:29:36;;;;;;;4.10;1.60;;;;;;;22.81;46.59;101024.81;15592675;28;20056;-49
2023/07/13 08:37:09;;;;;;;6.40;1.50;;;;;;;24.06;44.47;101010.44;15553680;28;20509;-49
2023/07/13 08:44:57;;;;;;;5.00;1.63;;;;;;;24.98;42.64;101014.63;15554555;28;20056;-52
2023/07/13 08:52:37;;;;;;;5.50;1.38;;;;;;;25.21;41.54;101007.38;15553422;28;20498;-50
2023/07/13 09:00:19;;;;;;;10.25;1.50;;;;;;;25.15;38.56;101003.91;15534982;28;20042;-47
2023/07/13 09:08:10;;;;;;;9.80;2.00;;;;;;;25.96;38.43;101007.06;15565648;28;20058;-48
2023/07/13 09:15:48;;;;;;;3.72;2.65;;;;;;;25.27;39.14;100998.72;15548102;28;20490;-52
2023/07/13 09:23:23;;;;;;;6.15;1.90;;;;;;;24.96;39.66;101014.13;15546925;28;20041;-51
2023/07/13 09:31:04;;;;;;;6.40;2.05;;;;;;;25.22;38.99;101003.50;15563852;28;20109;-49
2023/07/13 09:38:37;;;;;;;4.35;2.15;;;;;;;24.94;39.49;101009.72;15564158;28;20041;-48
2023/07/13 09:46:22;;;;;;;4.82;2.55;;;;;;;25.01;38.26;101019.50;15545514;28;20108;-49
2023/07/13 09:53:57;;;;;;;9.20;2.70;;;;;;;24.00;40.90;101020.66;15545530;28;20055;-47
2023/07/13 10:01:35;;;;;;;6.35;2.80;;;;;;;24.49;38.27;101024.19;15561549;28;20073;-48
2023/07/13 10:09:12;;;;;;;10.60;2.90;;;;;;;24.02;39.87;101028.63;15560989;28;20432;-48
2023/07/13 10:16:49;;;;;;;4.57;2.45;;;;;;;24.88;37.06;101021.91;15560690;28;20473;-53
2023/07/13 10:24:25;;;;;;;7.35;2.92;;;;;;;24.05;39.68;101038.97;15543382;28;20030;-49
2023/07/13 10:31:59;;;;;;;4.65;2.40;;;;;;;23.74;40.42;101047.56;15584491;28;20052;-46
2023/07/13 10:39:35;;;;;;;5.53;2.67;;;;;;;25.13;38.35;101036.34;15620780;28;20521;-51
2023/07/13 10:47:16;;;;;;;3.30;2.30;;;;;;;26.85;35.88;101025.69;15620903;28;20477;-51
2023/07/13 10:54:49;;;;;;;6.22;2.10;;;;;;;25.81;36.07;101019.19;15620480;28;20046;-49
2023/07/13 11:02:27;;;;;;;6.80;2.75;;;;;;;26.55;35.78;101020.94;15602128;28;20128;-52
2023/07/13 11:10:05;;;;;;;6.13;1.98;;;;;;;27.90;31.93;101011.38;15587867;23;20062;-55
2023/07/13 11:17:58;;;;;;;5.10;1.85;;;;;;;26.64;31.78;101013.56;15558045;28;20042;-57
2023/07/13 11:25:34;;;;;;;3.40;2.00;;;;;;;26.72;33.94;101010.06;15557573;28;20104;-57
2023/07/13 11:33:18;;;;;;;7.93;2.45;;;;;;;26.52;33.87;100997.56;15557537;28;20061;-56
2023/07/13 11:40:55;;;;;;;6.15;1.90;;;;;;;27.65;34.79;101003.78;15556018;28;20044;-55
2023/07/13 11:48:31;;;;;;;5.90;1.70;;;;;;;27.62;30.77;100997.00;15555259;28;20050;-58
2023/07/13 11:56:05;;;;;;;5.50;1.98;;;;;;;28.09;32.78;100988.22;15555000;28;20054;-59
2023/07/13 12:03:41;;;;;;;3.92;1.48;;;;;;;27.81;31.04;100993.19;15554809;28;20045;-58
2023/07/13 12:11:17;;;;;;;3.70;1.85;;;;;;;28.09;31.61;100986.25;15555569;28;20513;-56
2023/07/13 12:18:54;;;;;;;6.22;1.67;;;;;;;28.25;30.11;100985.78;15554503;28;20402;-52
2023/07/13 12:26:27;;;;;;;4.00;1.30;;;;;;;27.64;30.69;100989.19;15569900;28;20046;-54
2023/07/13 12:34:04;;;;;;;4.45;1.63;;;;;;;28.29;31.37;100997.81;15554653;28;20042;-52
2023/07/13 12:41:36;;;;;;;3.35;1.38;;;;;;;28.34;32.70;100994.88;15566376;28;20054;-53
2023/07/13 12:49:19;;;;;;;1.83;1.25;;;;;;;29.32;29.62;100974.00;15566074;28;20517;-53
2023/07/13 12:56:56;;;;;;;6.75;1.17;;;;;;;27.35;30.81;100991.69;15566351;28;20046;-53
2023/07/13 13:04:31;;;;;;;4.97;1.55;;;;;;;25.78;32.26;101000.53;15547992;28;20077;-53
2023/07/13 13:12:07;;;;;;;3.97;1.30;;;;;;;27.79;32.06;100989.91;15563782;28;20045;-52
2023/07/13 13:19:41;;;;;;;4.43;1.33;;;;;;;27.94;32.27;100978.44;15564646;28;20068;-52
2023/07/13 13:27:17;;;;;;;5.75;1.38;;;;;;;27.65;30.22;100987.25;15564659;28;20133;-53
2023/07/13 13:34:53;;;;;;;7.75;1.05;;;;;;;27.96;31.72;100984.44;15547209;28;20418;-52
2023/07/13 13:42:28;;;;;;;3.83;0.90;;;;;;;26.93;30.12;100978.13;15562269;28;20038;-50
2023/07/13 13:50:12;;;;;;;6.07;1.30;;;;;;;27.14;32.48;101002.41;15561680;28;20506;-49
2023/07/13 13:57:46;;;;;;;5.90;1.13;;;;;;;27.03;33.63;100990.81;15562521;28;20068;-50
2023/07/13 14:05:23;;;;;;;4.60;1.13;;;;;;;26.76;32.66;100997.28;15562018;28;20125;-53
2023/07/13 14:12:58;;;;;;;4.22;1.23;;;;;;;26.23;33.39;101000.69;15562644;28;20240;-56
2023/07/13 14:20:33;;;;;;;4.57;1.17;;;;;;;26.51;34.43;101006.97;15562065;28;20125;-54
2023/07/13 14:28:20;;;;;;;4.55;1.02;;;;;;;26.56;35.26;101006.84;15543892;28;20049;-56
2023/07/13 14:35:54;;;;;;;6.50;1.70;;;;;;;26.61;32.80;101006.72;15560510;28;20061;-54
2023/07/13 14:43:29;;;;;;;5.70;0.90;;;;;;;26.21;31.84;101008.47;15542925;28;20053;-58
2023/07/13 14:51:04;;;;;;;3.35;1.10;;;;;;;26.34;32.57;101004.03;15542795;28;20133;-55
2023/07/13 14:58:41;;;;;;;3.03;0.90;;;;;;;26.22;31.89;101010.09;15542541;28;20141;-54
2023/07/13 15:06:15;;;;;;;3.72;0.70;;;;;;;25.42;32.43;101016.91;15563290;28;20541;-51
2023/07/13 15:13:50;;;;;;;3.35;1.02;;;;;;;25.89;33.03;101012.97;15559226;28;20046;-51
2023/07/13 15:21:31;;;;;;;3.83;0.70;;;;;;;25.94;32.88;101001.88;15540159;28;20225;-53
2023/07/13 15:29:05;;;;;;;2.25;0.80;;;;;;;25.53;31.92;101009.28;15539691;28;20081;-49
2023/07/13 15:36:40;;;;;;;2.80;0.90;;;;;;;25.75;31.73;101009.38;15555646;28;20133;-54
2023/07/13 15:44:25;;;;;;;1.95;0.80;;;;;;;26.11;31.67;100994.91;15556667;28;20052;-50
2023/07/13 15:52:00;;;;;;;2.75;0.85;;;;;;;25.74;31.38;100995.91;15556160;28;20078;-53
2023/07/13 15:59:35;;;;;;;2.10;0.90;;;;;;;25.62;32.73;100985.44;15554651;28;20503;-51
2023/07/13 16:07:12;;;;;;;3.83;0.95;;;;;;;25.17;31.24;100996.19;15555772;28;20410;-55
2023/07/13 16:14:45;;;;;;;2.22;0.93;;;;;;;25.61;31.06;100994.81;15554895;28;20046;-52
2023/07/13 16:22:21;;;;;;;3.30;1.10;;;;;;;25.40;31.15;100997.94;15554103;28;20129;-52
2023/07/13 16:29:54;;;;;;;4.10;1.30;;;;;;;25.32;31.76;101006.91;15537677;28;20049;-50
2023/07/13 16:37:30;;;;;;;3.67;1.17;;;;;;;25.43;31.43;101002.84;15554574;28;20140;-51
2023/07/13 16:45:04;;;;;;;2.63;1.00;;;;;;;25.27;33.08;101006.97;15554644;28;20487;-49
2023/07/13 16:52:39;;;;;;;4.50;1.15;;;;;;;24.80;33.37;101016.28;15554316;28;20049;-53
2023/07/13 17:00:23;;;;;;;5.18;1.27;;;;;;;24.67;32.89;101023.34;15553787;28;20561;-51
2023/07/13 17:07:59;;;;;;;3.17;1.20;;;;;;;24.90;33.55;101047.16;15552413;28;20141;-58
2023/07/13 17:15:35;;;;;;;6.43;1.70;;;;;;;22.63;42.30;101126.72;15553503;28;20324;-59
2023/07/13 17:23:15;;;;;;;2.72;1.15;;;;;;;21.78;45.90;101145.84;15521897;28;20068;-56
2023/07/13 17:30:50;;;;;;;6.70;1.65;;;;;;;20.82;49.12;101150.09;15564855;28;20104;-59
2023/07/13 17:38:30;;;;;;;5.28;1.80;;;;;;;20.78;49.57;101165.34;15562688;28;20034;-54
2023/07/13 17:46:03;;;;;;;5.35;1.58;;;;;;;20.87;48.78;101174.66;15563705;28;20052;-57
2023/07/13 17:53:42;;;;;;;5.97;1.98;;;;;;;20.73;48.93;101168.88;15562609;28;20042;-59
2023/07/13 18:01:19;;;;;;;7.78;1.77;;;;;;;20.64;48.62;101167.75;15562128;28;20069;-60
2023/07/13 18:08:54;;;;;;;3.53;1.50;;;;;;;21.28;47.18;101172.03;15561542;28;20071;-59
2023/07/13 18:16:31;;;;;;;4.13;1.60;;;;;;;20.73;48.27;101185.25;15561618;28;20042;-55
2023/07/13 18:24:09;;;;;;;4.45;1.42;;;;;;;21.09;47.97;101188.09;15562967;28;20042;-52
2023/07/13 18:31:43;;;;;;;5.25;1.45;;;;;;;20.73;48.23;101190.69;15563225;28;20046;-53
2023/07/13 18:39:18;;;;;;;6.40;1.65;;;;;;;21.20;47.54;101194.38;15562360;28;20046;-52
2023/07/13 18:46:51;;;;;;;4.97;1.45;;;;;;;20.60;47.89;101186.56;15561602;28;20391;-54
2023/07/13 18:54:26;;;;;;;2.85;1.55;;;;;;;20.62;47.99;101198.03;15560833;28;20077;-52
2023/07/13 19:02:00;;;;;;;2.58;1.60;;;;;;;20.71;48.16;101214.72;15559920;28;20073;-57
2023/07/13 19:09:34;;;;;;;5.00;1.40;;;;;;;20.70;48.36;101218.50;15558283;28;20052;-52
2023/07/13 19:17:10;;;;;;;4.68;1.42;;;;;;;20.73;48.25;101226.16;15557196;28;20062;-51
2023/07/13 19:24:45;;;;;;;3.13;1.50;;;;;;;20.66;48.56;101241.97;15557377;28;20137;-55
2023/07/13 19:32:17;;;;;;;5.07;1.50;;;;;;;20.84;47.98;101248.84;15557380;28;20041;-53
2023/07/13 19:39:52;;;;;;;2.10;1.48;;;;;;;20.71;49.53;101258.38;15556162;28;20053;-54
2023/07/13 19:47:25;;;;;;;6.07;1.70;;;;;;;19.98;51.05;101281.81;15555656;28;20327;-51
2023/07/13 19:55:00;;;;;;;2.17;1.52;;;;;;;20.28;51.13;101278.50;15538161;28;20129;-51
2023/07/13 20:02:33;;;;;;;4.20;1.70;;;;;;;19.97;52.61;101291.09;15555223;28;20053;-54
2023/07/13 20:10:20;;;;;;;4.50;2.10;;;;;;;20.14;52.67;101302.66;15537929;28;20231;-55
2023/07/13 20:17:55;;;;;;;5.97;1.95;;;;;;;19.55;53.40;101311.63;15554317;28;20062;-55
2023/07/13 20:25:32;;;;;;;3.00;1.50;;;;;;;19.81;53.37;101307.28;15553989;28;20099;-58
2023/07/13 20:33:08;;;;;;;2.55;1.70;;;;;;;19.94;53.59;101316.13;15554218;28;20120;-54
2023/07/13 20:40:43;;;;;;;4.30;1.80;;;;;;;19.87;53.77;101316.34;15553660;28;20498;-50
2023/07/13 20:48:26;;;;;;;5.95;2.10;;;;;;;19.86;52.79;101318.25;15553558;28;20077;-53
2023/07/13 20:56:01;;;;;;;8.23;2.00;;;;;;;19.97;52.40;101323.78;15554054;28;20061;-53
2023/07/13 21:03:34;;;;;;;4.95;1.90;;;;;;;19.69;54.23;101328.41;15548195;28;20696;-51
2023/07/13 21:11:10;;;;;;;6.78;2.10;;;;;;;19.90;53.52;101334.88;15566849;28;20153;-54
2023/07/13 21:18:43;;;;;;;5.65;2.13;;;;;;;19.85;52.91;101340.28;15563152;28;20571;-51
2023/07/13 21:26:18;;;;;;;6.50;3.00;;;;;;;19.12;54.34;101317.94;15546323;28;20076;-52
2023/07/13 21:33:55;;;;;;;3.55;2.38;;;;;;;19.69;53.93;101335.78;15558716;28;20099;-53
2023/07/13 21:41:31;;;;;;;8.40;2.65;;;;;;;19.43;54.54;101340.88;15562607;28;20041;-51
2023/07/13 21:49:04;;;;;;;6.40;4.07;;;;;;;19.45;54.78;101351.53;15562879;28;20080;-52
2023/07/13 21:56:39;;;;;;;9.10;2.65;;;;;;;19.05;55.09;101364.38;15563103;28;20041;-53
2023/07/13 22:04:15;;;;;;;8.20;2.67;;;;;;;18.99;55.58;101367.28;15562717;28;20388;-52
2023/07/13 22:11:50;;;;;;;8.93;2.50;;;;;;;18.81;56.08;101358.31;15561670;28;20069;-51
2023/07/13 22:19:28;;;;;;;6.18;2.35;;;;;;;18.40;58.35;101356.84;15545203;28;20074;-53
2023/07/13 22:27:03;;;;;;;8.73;2.92;;;;;;;18.05;59.16;101352.47;15559778;28;20060;-53
2023/07/13 22:34:36;;;;;;;3.35;2.30;;;;;;;18.23;58.94;101356.00;15543005;28;20377;-51
2023/07/13 22:42:10;;;;;;;6.03;2.70;;;;;;;18.15;58.27;101332.78;15560255;28;20073;-54
2023/07/13 22:49:43;;;;;;;6.18;3.00;;;;;;;18.48;57.37;101339.31;15559950;28;20050;-55
2023/07/13 22:57:18;;;;;;;5.85;3.00;;;;;;;18.41;57.72;101349.50;15559874;28;20056;-52
2023/07/13 23:04:51;;;;;;;4.95;2.72;;;;;;;17.09;62.11;101356.78;15558631;28;20119;-55
2023/07/13 23:12:30;;;;;;;6.80;3.17;;;;;;;17.18;61.45;101355.34;15558031;28;20037;-56
2023/07/13 23:20:06;;;;;;;6.07;2.75;;;;;;;17.64;59.47;101363.59;15557622;28;20089;-54
2023/07/13 23:27:41;;;;;;;6.07;2.80;;;;;;;17.89;58.40;101364.09;15556964;28;20502;-54
2023/07/13 23:35:16;;;;;;;5.38;3.03;;;;;;;17.70;59.68;101358.03;15556419;28;20073;-56
2023/07/13 23:42:51;;;;;;;7.00;3.10;;;;;;;17.29;60.22;101357.19;15538961;28;20054;-54
2023/07/13 23:50:26;;;;;;;4.85;3.17;;;;;;;17.27;61.21;101342.25;15554979;28;20042;-54
2023/07/13 23:58:03;;;;;;;4.53;3.13;;;;;;;17.13;61.58;101360.66;15555856;28;20049;-52
